createdAt,value
2023-01-19T00:00:06.771Z,10.38
2023-01-19T00:02:33.083Z,11.67
2023-01-19T00:04:59.378Z,11.54
2023-01-19T00:07:25.630Z,10.66
2023-01-19T00:09:51.918Z,10.46
2023-01-19T00:12:18.179Z,9.77
2023-01-19T00:14:44.441Z,9.45
2023-01-19T00:17:10.701Z,8.85
2023-01-19T00:19:36.955Z,8.83
2023-01-19T00:22:03.233Z,8.84
2023-01-19T00:24:29.497Z,11.03
2023-01-19T00:26:55.768Z,12.73
2023-01-19T00:29:22.033Z,10.79
2023-01-19T00:31:48.321Z,9.00
2023-01-19T00:34:14.608Z,9.05
2023-01-19T00:36:40.895Z,8.08
2023-01-19T00:39:07.152Z,7.78
2023-01-19T00:41:33.406Z,7.92
2023-01-19T00:43:59.652Z,7.68
2023-01-19T00:46:25.891Z,8.08
2023-01-19T00:48:52.263Z,8.24
2023-01-19T00:51:18.510Z,8.54
2023-01-19T00:53:44.751Z,8.97
2023-01-19T00:56:11.028Z,8.45
2023-01-19T00:58:37.277Z,8.43
2023-01-19T01:01:03.988Z,8.28
2023-01-19T01:03:30.348Z,8.26
2023-01-19T01:05:56.616Z,8.82
2023-01-19T01:08:22.960Z,9.39
2023-01-19T01:10:49.277Z,10.53
2023-01-19T01:13:22.551Z,12.58
2023-01-19T01:15:50.085Z,13.52
2023-01-19T01:18:16.331Z,13.95
2023-01-19T01:20:42.607Z,13.21
2023-01-19T01:23:08.859Z,12.86
2023-01-19T01:25:35.133Z,12.75
2023-01-19T01:28:01.403Z,10.68
2023-01-19T01:30:27.681Z,7.67
2023-01-19T01:32:53.927Z,7.27
2023-01-19T01:35:20.179Z,7.11
2023-01-19T01:37:46.472Z,6.79
2023-01-19T01:40:12.762Z,7.13
2023-01-19T01:42:39.047Z,6.86
2023-01-19T01:45:05.735Z,6.54
2023-01-19T01:47:32.019Z,6.45
2023-01-19T01:49:58.302Z,6.75
2023-01-19T01:52:24.608Z,6.89
2023-01-19T01:54:50.887Z,7.32
2023-01-19T01:57:17.137Z,6.70
2023-01-19T01:59:43.402Z,6.68
2023-01-19T02:02:09.698Z,6.65
2023-01-19T02:04:36.651Z,7.24
2023-01-19T02:07:02.943Z,6.77
2023-01-19T02:09:29.242Z,6.96
2023-01-19T02:11:55.611Z,7.48
2023-01-19T02:14:21.880Z,7.74
2023-01-19T02:16:48.213Z,8.02
2023-01-19T02:19:14.465Z,7.61
2023-01-19T02:21:40.766Z,8.37
2023-01-19T02:24:07.031Z,8.26
2023-01-19T02:26:33.281Z,8.30
2023-01-19T02:28:59.555Z,8.44
2023-01-19T02:31:25.819Z,7.62
2023-01-19T02:33:52.076Z,7.82
2023-01-19T02:36:18.341Z,7.10
2023-01-19T02:38:44.677Z,6.71
2023-01-19T02:41:10.943Z,6.46
2023-01-19T02:43:37.196Z,6.46
2023-01-19T02:46:03.515Z,6.89
2023-01-19T02:48:29.800Z,7.30
2023-01-19T02:50:56.057Z,8.81
2023-01-19T02:53:22.391Z,9.88
2023-01-19T02:55:48.669Z,10.05
2023-01-19T02:58:14.926Z,10.29
2023-01-19T03:00:41.215Z,9.76
2023-01-19T03:03:07.550Z,8.90
2023-01-19T03:05:33.844Z,8.80
2023-01-19T03:08:00.139Z,8.22
2023-01-19T03:10:26.530Z,8.24
2023-01-19T03:12:52.787Z,7.93
2023-01-19T03:15:19.144Z,8.45
2023-01-19T03:17:45.429Z,8.00
2023-01-19T03:20:11.683Z,7.77
2023-01-19T03:22:37.954Z,7.33
2023-01-19T03:25:04.229Z,7.35
2023-01-19T03:27:30.521Z,7.34
2023-01-19T03:29:56.773Z,7.54
2023-01-19T03:32:23.032Z,7.52
2023-01-19T03:34:49.280Z,8.04
2023-01-19T03:37:15.535Z,8.66
2023-01-19T03:39:41.799Z,9.25
2023-01-19T03:42:08.049Z,9.52
2023-01-19T03:44:34.288Z,9.86
2023-01-19T03:47:00.552Z,9.90
2023-01-19T03:49:26.840Z,10.15
2023-01-19T03:51:53.099Z,9.84
2023-01-19T03:54:19.381Z,9.64
2023-01-19T03:56:45.653Z,9.80
2023-01-19T03:59:11.925Z,7.95
2023-01-19T04:01:38.276Z,7.52
2023-01-19T04:04:04.597Z,7.94
2023-01-19T04:06:30.858Z,7.00
2023-01-19T04:08:57.218Z,7.82
2023-01-19T04:11:23.719Z,7.49
2023-01-19T04:13:50.031Z,7.17
2023-01-19T04:16:16.330Z,7.03
2023-01-19T04:18:42.618Z,6.86
2023-01-19T04:21:08.876Z,6.93
2023-01-19T04:23:35.129Z,6.83
2023-01-19T04:26:01.391Z,7.15
2023-01-19T04:28:27.657Z,6.67
2023-01-19T04:30:53.992Z,6.37
2023-01-19T04:33:20.267Z,6.54
2023-01-19T04:35:46.529Z,6.49
2023-01-19T04:38:12.791Z,6.03
2023-01-19T04:40:39.059Z,5.74
2023-01-19T04:43:05.336Z,6.00
2023-01-19T04:45:31.596Z,5.73
2023-01-19T04:47:57.846Z,5.91
2023-01-19T04:50:24.098Z,6.72
2023-01-19T04:52:50.344Z,6.92
2023-01-19T04:55:16.604Z,6.70
2023-01-19T04:57:42.850Z,6.63
2023-01-19T05:00:09.107Z,8.19
2023-01-19T05:02:35.376Z,10.37
2023-01-19T05:05:01.697Z,9.59
2023-01-19T05:07:28.041Z,9.49
2023-01-19T05:09:54.348Z,8.66
2023-01-19T05:12:20.635Z,8.17
2023-01-19T05:14:46.901Z,7.35
2023-01-19T05:17:13.187Z,6.52
2023-01-19T05:19:39.444Z,6.55
2023-01-19T05:22:05.695Z,6.36
2023-01-19T05:24:31.977Z,6.21
2023-01-19T05:26:58.243Z,6.44
2023-01-19T05:29:24.485Z,6.09
2023-01-19T05:31:50.943Z,5.67
2023-01-19T05:34:17.205Z,6.14
2023-01-19T05:36:43.472Z,6.05
2023-01-19T05:39:09.899Z,7.23
2023-01-19T05:41:36.160Z,7.73
2023-01-19T05:44:02.433Z,7.54
2023-01-19T05:46:28.726Z,7.73
2023-01-19T05:48:55.015Z,7.18
2023-01-19T05:51:21.300Z,7.10
2023-01-19T05:53:47.551Z,7.10
2023-01-19T05:56:13.824Z,7.08
2023-01-19T05:58:40.086Z,7.01
2023-01-19T06:01:06.381Z,6.35
2023-01-19T06:03:32.848Z,6.22
2023-01-19T06:05:59.274Z,6.22
2023-01-19T06:08:25.543Z,6.04
2023-01-19T06:10:51.809Z,5.70
2023-01-19T06:13:18.100Z,6.21
2023-01-19T06:15:44.576Z,6.55
2023-01-19T06:18:10.851Z,7.54
2023-01-19T06:20:37.117Z,7.88
2023-01-19T06:23:03.626Z,7.87
2023-01-19T06:25:30.101Z,8.20
2023-01-19T06:27:56.356Z,7.98
2023-01-19T06:30:22.618Z,7.68
2023-01-19T06:32:48.961Z,7.31
2023-01-19T06:35:15.201Z,7.11
2023-01-19T06:37:41.476Z,6.69
2023-01-19T06:40:07.761Z,6.96
2023-01-19T06:42:34.027Z,6.79
2023-01-19T06:45:00.305Z,6.85
2023-01-19T06:47:26.574Z,7.03
2023-01-19T06:49:52.848Z,7.18
2023-01-19T06:52:19.150Z,7.77
2023-01-19T06:54:45.605Z,7.97
2023-01-19T06:57:11.877Z,8.46
2023-01-19T06:59:38.121Z,8.67
2023-01-19T07:02:27.200Z,8.34
2023-01-19T07:04:50.699Z,7.25
2023-01-19T07:07:16.981Z,7.20
2023-01-19T07:09:43.221Z,7.14
2023-01-19T07:12:09.484Z,6.87
2023-01-19T07:14:36.578Z,7.06
2023-01-19T07:17:02.854Z,6.99
2023-01-19T07:19:29.100Z,7.02
2023-01-19T07:21:55.372Z,6.91
2023-01-19T07:24:21.639Z,7.06
2023-01-19T07:26:47.904Z,7.33
2023-01-19T07:29:14.154Z,7.80
2023-01-19T07:31:40.483Z,7.43
2023-01-19T07:34:06.807Z,7.78
2023-01-19T07:36:33.123Z,9.40
2023-01-19T07:38:59.427Z,10.22
2023-01-19T07:41:25.711Z,9.50
2023-01-19T07:43:51.976Z,9.99
2023-01-19T07:46:18.276Z,11.21
2023-01-19T07:48:44.569Z,11.35
2023-01-19T07:51:12.705Z,11.49
2023-01-19T07:53:39.345Z,11.67
2023-01-19T07:56:05.608Z,10.09
2023-01-19T07:58:31.869Z,9.51
2023-01-19T08:00:58.285Z,9.37
2023-01-19T08:03:24.771Z,8.83
2023-01-19T08:05:51.048Z,9.81
2023-01-19T08:08:17.382Z,8.35
2023-01-19T08:10:43.633Z,8.60
2023-01-19T08:13:09.871Z,7.71
2023-01-19T08:15:36.159Z,7.56
2023-01-19T08:18:02.454Z,7.85
2023-01-19T08:20:28.731Z,7.69
2023-01-19T08:22:54.979Z,7.98
2023-01-19T08:25:21.221Z,7.90
2023-01-19T08:27:47.511Z,7.81
2023-01-19T08:30:13.762Z,8.24
2023-01-19T08:32:40.049Z,7.53
2023-01-19T08:35:06.334Z,7.68
2023-01-19T08:37:34.224Z,8.09
2023-01-19T08:40:00.660Z,7.94
2023-01-19T08:42:26.922Z,8.34
2023-01-19T08:44:58.197Z,8.31
2023-01-19T08:47:24.872Z,8.16
2023-01-19T08:49:51.202Z,8.25
2023-01-19T08:52:17.480Z,8.22
2023-01-19T08:54:43.743Z,8.47
2023-01-19T08:57:10.017Z,10.13
2023-01-19T08:59:36.337Z,10.96
2023-01-19T09:02:02.711Z,10.96
2023-01-19T09:04:29.086Z,11.02
2023-01-19T09:06:55.336Z,10.88
2023-01-19T09:09:21.622Z,10.81
2023-01-19T09:11:47.933Z,10.85
2023-01-19T09:14:14.206Z,10.05
2023-01-19T09:16:40.493Z,8.75
2023-01-19T09:19:06.799Z,8.56
2023-01-19T09:21:33.080Z,8.54
2023-01-19T09:23:59.344Z,8.49
2023-01-19T09:26:25.608Z,8.50
2023-01-19T09:28:51.881Z,8.92
2023-01-19T09:31:18.249Z,8.15
2023-01-19T09:33:44.541Z,8.51
2023-01-19T09:36:10.825Z,8.72
2023-01-19T09:38:37.074Z,8.93
2023-01-19T09:41:03.441Z,8.74
2023-01-19T09:43:29.740Z,8.74
2023-01-19T09:45:56.012Z,8.75
2023-01-19T09:48:22.248Z,8.66
2023-01-19T09:50:48.503Z,8.35
2023-01-19T09:53:14.770Z,8.95
2023-01-19T09:55:41.069Z,8.72
2023-01-19T09:58:07.360Z,8.91
2023-01-19T10:00:33.669Z,8.74
2023-01-19T10:03:00.314Z,8.26
2023-01-19T10:05:26.841Z,8.58
2023-01-19T10:07:53.158Z,8.62
2023-01-19T10:10:19.421Z,9.68
2023-01-19T10:12:45.680Z,10.30
2023-01-19T10:15:11.960Z,9.84
2023-01-19T10:17:38.211Z,9.33
2023-01-19T10:20:04.480Z,9.09
2023-01-19T10:22:30.787Z,9.53
2023-01-19T10:24:57.074Z,9.16
2023-01-19T10:27:23.327Z,8.43
2023-01-19T10:29:49.574Z,8.27
2023-01-19T10:32:15.875Z,8.56
2023-01-19T10:34:45.254Z,8.59
2023-01-19T10:37:11.526Z,9.03
2023-01-19T10:39:38.836Z,8.85
2023-01-19T10:42:05.205Z,9.20
2023-01-19T10:44:31.448Z,9.23
2023-01-19T10:46:57.750Z,8.25
2023-01-19T10:49:24.067Z,8.16
2023-01-19T10:51:50.391Z,8.17
2023-01-19T10:54:16.666Z,8.18
2023-01-19T10:56:42.979Z,7.66
2023-01-19T10:59:09.284Z,7.78
2023-01-19T11:01:35.655Z,7.36
2023-01-19T11:04:01.971Z,7.52
2023-01-19T11:06:28.334Z,7.15
2023-01-19T11:08:54.599Z,7.35
2023-01-19T11:11:20.883Z,7.59
2023-01-19T11:13:47.151Z,7.31
2023-01-19T11:16:13.548Z,6.98
2023-01-19T11:18:39.830Z,7.00
2023-01-19T11:21:06.093Z,7.07
2023-01-19T11:23:32.375Z,7.33
2023-01-19T11:25:58.629Z,6.89
2023-01-19T11:28:24.919Z,7.25
2023-01-19T11:30:51.263Z,6.97
2023-01-19T11:33:17.535Z,7.27
2023-01-19T11:35:43.791Z,6.99
2023-01-19T11:38:10.066Z,7.40
2023-01-19T11:40:36.333Z,7.31
2023-01-19T11:43:02.966Z,7.64
2023-01-19T11:45:29.517Z,7.46
2023-01-19T11:47:55.803Z,7.73
2023-01-19T11:50:22.080Z,8.05
2023-01-19T11:52:48.392Z,8.61
2023-01-19T11:55:14.643Z,8.52
2023-01-19T11:57:40.919Z,8.80
2023-01-19T12:00:07.169Z,9.07
2023-01-19T12:02:33.451Z,8.63
2023-01-19T12:04:59.719Z,9.02
2023-01-19T12:07:25.976Z,8.44
2023-01-19T12:09:52.241Z,8.52
2023-01-19T12:12:18.516Z,8.58
2023-01-19T12:14:44.774Z,8.78
2023-01-19T12:17:11.020Z,9.37
2023-01-19T12:19:37.272Z,9.49
2023-01-19T12:22:03.560Z,9.11
2023-01-19T12:24:29.845Z,9.13
2023-01-19T12:26:56.154Z,9.30
2023-01-19T12:29:22.423Z,9.92
2023-01-19T12:31:50.937Z,9.38
2023-01-19T12:34:18.050Z,9.35
2023-01-19T12:36:44.332Z,9.10
2023-01-19T12:39:10.626Z,8.54
2023-01-19T12:41:36.904Z,9.10
2023-01-19T12:44:03.246Z,9.07
2023-01-19T12:46:29.565Z,7.47
2023-01-19T12:48:55.891Z,6.44
2023-01-19T12:51:22.198Z,6.31
2023-01-19T12:53:50.551Z,6.71
2023-01-19T12:56:16.827Z,5.95
2023-01-19T12:58:43.174Z,6.04
2023-01-19T13:01:09.575Z,5.95
2023-01-19T13:03:35.899Z,5.69
2023-01-19T13:06:02.204Z,6.04
2023-01-19T13:08:28.477Z,5.72
2023-01-19T13:10:54.782Z,5.54
2023-01-19T13:13:21.045Z,5.77
2023-01-19T13:15:47.343Z,5.51
2023-01-19T13:18:13.701Z,5.54
2023-01-19T13:20:39.956Z,5.42
2023-01-19T13:23:06.226Z,5.27
2023-01-19T13:25:32.481Z,5.02
2023-01-19T13:27:58.756Z,5.02
2023-01-19T13:30:25.118Z,4.94
2023-01-19T13:32:51.409Z,4.99
2023-01-19T13:35:17.737Z,4.93
2023-01-19T13:37:43.999Z,4.75
2023-01-19T13:40:10.292Z,4.92
2023-01-19T13:42:36.540Z,4.81
2023-01-19T13:45:02.819Z,4.99
2023-01-19T13:47:29.112Z,5.07
2023-01-19T13:49:55.381Z,4.98
2023-01-19T13:52:21.660Z,4.70
2023-01-19T13:54:47.930Z,4.44
2023-01-19T13:57:14.210Z,4.47
2023-01-19T13:59:40.552Z,4.38
2023-01-19T14:02:06.909Z,4.71
2023-01-19T14:04:33.233Z,5.07
2023-01-19T14:06:59.484Z,5.23
2023-01-19T14:09:25.748Z,5.07
2023-01-19T14:11:52.075Z,5.49
2023-01-19T14:14:18.370Z,5.42
2023-01-19T14:16:44.608Z,5.02
2023-01-19T14:19:10.880Z,5.27
2023-01-19T14:21:37.194Z,5.35
2023-01-19T14:24:03.481Z,5.01
2023-01-19T14:26:29.751Z,4.86
2023-01-19T14:28:56.016Z,4.90
2023-01-19T14:31:22.347Z,4.64
2023-01-19T14:33:48.755Z,4.89
2023-01-19T14:36:17.583Z,4.92
2023-01-19T14:38:44.095Z,5.11
2023-01-19T14:41:10.450Z,5.17
2023-01-19T14:43:36.693Z,5.07
2023-01-19T14:46:02.944Z,5.30
2023-01-19T14:48:29.212Z,5.22
2023-01-19T14:51:03.147Z,5.38
2023-01-19T14:53:29.656Z,5.56
2023-01-19T14:55:55.959Z,5.55
2023-01-19T14:58:22.219Z,5.59
2023-01-19T15:00:48.525Z,5.59
2023-01-19T15:03:14.791Z,5.81
2023-01-19T15:05:41.054Z,5.83
2023-01-19T15:08:07.341Z,6.03
2023-01-19T15:10:33.605Z,5.74
2023-01-19T15:12:59.910Z,5.84
2023-01-19T15:15:26.175Z,5.45
2023-01-19T15:17:53.171Z,6.59
2023-01-19T15:20:20.511Z,6.03
2023-01-19T15:22:46.815Z,5.83
2023-01-19T15:25:13.072Z,5.88
2023-01-19T15:27:39.349Z,5.84
2023-01-19T15:30:05.625Z,6.02
2023-01-19T15:32:31.910Z,5.77
2023-01-19T15:34:58.229Z,6.05
2023-01-19T15:37:24.590Z,5.76
2023-01-19T15:39:50.929Z,5.69
2023-01-19T15:42:17.290Z,5.84
2023-01-19T15:44:43.651Z,6.09
2023-01-19T15:47:10.018Z,6.36
2023-01-19T15:49:36.309Z,6.37
2023-01-19T15:52:02.594Z,6.63
2023-01-19T15:54:28.860Z,6.05
2023-01-19T15:56:55.115Z,6.33
2023-01-19T15:59:21.389Z,6.31
2023-01-19T16:01:47.845Z,6.77
2023-01-19T16:04:15.998Z,6.70
2023-01-19T16:06:44.083Z,6.87
2023-01-19T16:09:10.352Z,7.00
2023-01-19T16:11:36.605Z,7.04
2023-01-19T16:14:02.861Z,7.88
2023-01-19T16:16:29.198Z,8.60
2023-01-19T16:18:55.523Z,8.30
2023-01-19T16:21:21.821Z,8.27
2023-01-19T16:23:48.091Z,8.55
2023-01-19T16:26:16.187Z,8.95
2023-01-19T16:28:43.747Z,9.08
2023-01-19T16:31:10.031Z,10.18
2023-01-19T16:33:36.340Z,10.67
2023-01-19T16:36:02.598Z,11.08
2023-01-19T16:38:28.901Z,9.00
2023-01-19T16:40:55.175Z,9.24
2023-01-19T16:43:21.442Z,9.44
2023-01-19T16:45:47.749Z,8.95
2023-01-19T16:48:14.025Z,8.75
2023-01-19T16:50:40.315Z,8.53
2023-01-19T16:53:06.571Z,8.58
2023-01-19T16:55:32.838Z,8.98
2023-01-19T16:57:59.106Z,8.97
2023-01-19T17:00:25.388Z,9.27
2023-01-19T17:02:51.714Z,9.28
2023-01-19T17:05:18.023Z,10.64
2023-01-19T17:07:44.327Z,11.26
2023-01-19T17:10:10.833Z,11.23
2023-01-19T17:12:37.228Z,11.23
2023-01-19T17:15:03.488Z,10.99
2023-01-19T17:17:29.735Z,11.41
2023-01-19T17:19:56.017Z,13.08
2023-01-19T17:22:22.329Z,13.51
2023-01-19T17:24:48.601Z,14.22
2023-01-19T17:27:14.913Z,16.79
2023-01-19T17:29:41.218Z,18.96
2023-01-19T17:32:07.498Z,19.20
2023-01-19T17:34:33.804Z,15.46
2023-01-19T17:37:00.103Z,12.58
2023-01-19T17:39:26.397Z,11.30
2023-01-19T17:41:52.694Z,12.03
2023-01-19T17:44:18.991Z,12.39
2023-01-19T17:46:45.247Z,13.49
2023-01-19T17:49:11.599Z,13.10
2023-01-19T17:51:37.868Z,12.75
2023-01-19T17:54:04.178Z,14.16
2023-01-19T17:56:30.513Z,14.16
2023-01-19T17:58:56.803Z,14.02
2023-01-19T18:01:23.189Z,14.69
2023-01-19T18:03:49.531Z,14.60
2023-01-19T18:06:15.979Z,16.44
2023-01-19T18:08:42.287Z,15.31
2023-01-19T18:11:08.609Z,14.60
2023-01-19T18:13:34.891Z,14.43
2023-01-19T18:16:01.350Z,14.04
2023-01-19T18:18:27.645Z,14.67
2023-01-19T18:20:53.924Z,14.43
2023-01-19T18:23:20.276Z,14.49
2023-01-19T18:25:46.585Z,15.84
2023-01-19T18:28:13.025Z,16.02
2023-01-19T18:30:39.426Z,16.54
2023-01-19T18:33:05.790Z,16.72
2023-01-19T18:35:32.063Z,15.60
2023-01-19T18:37:58.347Z,16.68
2023-01-19T18:40:24.605Z,17.39
2023-01-19T18:42:50.963Z,16.87
2023-01-19T18:45:17.337Z,16.94
2023-01-19T18:47:43.624Z,17.55
2023-01-19T18:50:09.882Z,17.85
2023-01-19T18:52:36.163Z,16.85
2023-01-19T18:55:02.461Z,17.18
2023-01-19T18:57:28.810Z,16.87
2023-01-19T18:59:55.142Z,18.54
2023-01-19T19:02:21.490Z,18.12
2023-01-19T19:04:47.789Z,17.70
2023-01-19T19:07:14.052Z,18.22
2023-01-19T19:09:40.407Z,19.21
2023-01-19T19:12:06.695Z,21.74
2023-01-19T19:14:32.983Z,22.52
2023-01-19T19:16:59.242Z,21.98
2023-01-19T19:19:25.532Z,22.89
2023-01-19T19:21:51.811Z,21.99
2023-01-19T19:24:18.105Z,22.95
2023-01-19T19:26:44.391Z,21.72
2023-01-19T19:29:10.659Z,21.97
2023-01-19T19:31:36.994Z,21.65
2023-01-19T19:34:03.475Z,21.28
2023-01-19T19:36:29.800Z,20.20
2023-01-19T19:38:56.085Z,20.82
2023-01-19T19:41:22.369Z,20.71
2023-01-19T19:43:48.679Z,21.66
2023-01-19T19:46:14.954Z,23.16
2023-01-19T19:48:41.247Z,25.82
2023-01-19T19:51:17.736Z,25.43
2023-01-19T19:53:45.008Z,24.09
2023-01-19T19:56:11.290Z,22.30
2023-01-19T19:58:37.581Z,20.47
2023-01-19T20:01:04.030Z,20.07
2023-01-19T20:03:30.318Z,18.52
2023-01-19T20:05:56.634Z,18.47
2023-01-19T20:08:22.950Z,19.19
2023-01-19T20:10:49.232Z,19.10
2023-01-19T20:13:15.652Z,18.60
2023-01-19T20:15:42.101Z,18.69
2023-01-19T20:18:08.436Z,19.10
2023-01-19T20:20:34.757Z,19.19
2023-01-19T20:23:01.032Z,18.80
2023-01-19T20:25:27.311Z,18.46
2023-01-19T20:27:53.601Z,16.74
2023-01-19T20:30:19.893Z,19.37
2023-01-19T20:32:46.299Z,19.91
2023-01-19T20:35:12.991Z,20.53
2023-01-19T20:37:39.536Z,20.08
2023-01-19T20:40:05.826Z,20.87
2023-01-19T20:42:32.084Z,20.36
2023-01-19T20:45:13.858Z,19.80
2023-01-19T20:47:40.332Z,19.45
2023-01-19T20:50:06.702Z,19.09
2023-01-19T20:52:33.135Z,18.56
2023-01-19T20:54:59.414Z,18.32
2023-01-19T20:57:25.768Z,17.98
2023-01-19T20:59:52.064Z,17.43
2023-01-19T21:02:18.578Z,17.27
2023-01-19T21:04:44.928Z,16.66
2023-01-19T21:07:11.259Z,18.22
2023-01-19T21:09:37.509Z,18.66
2023-01-19T21:12:03.805Z,18.24
2023-01-19T21:14:30.081Z,17.75
2023-01-19T21:16:56.363Z,18.95
2023-01-19T21:19:25.709Z,18.86
2023-01-19T21:21:51.992Z,18.72
2023-01-19T21:24:18.271Z,19.56
2023-01-19T21:26:44.560Z,19.13
2023-01-19T21:29:10.834Z,19.92
2023-01-19T21:31:37.234Z,19.20
2023-01-19T21:34:03.621Z,19.71
2023-01-19T21:36:29.878Z,18.50
2023-01-19T21:38:56.132Z,18.81
2023-01-19T21:41:22.402Z,18.87
2023-01-19T21:43:48.661Z,18.36
2023-01-19T21:46:14.920Z,16.76
2023-01-19T21:48:41.173Z,18.16
2023-01-19T21:51:07.447Z,19.93
2023-01-19T21:53:33.713Z,18.96
2023-01-19T21:56:00.010Z,17.75
2023-01-19T21:58:26.275Z,17.11
2023-01-19T22:00:52.660Z,15.42
2023-01-19T22:03:19.020Z,15.66
2023-01-19T22:05:45.324Z,15.14
2023-01-19T22:08:11.588Z,14.66
2023-01-19T22:10:37.864Z,14.93
2023-01-19T22:13:04.137Z,14.61
2023-01-19T22:15:30.405Z,14.33
2023-01-19T22:17:56.678Z,14.25
2023-01-19T22:20:22.945Z,14.28
2023-01-19T22:22:49.328Z,14.75
2023-01-19T22:25:15.749Z,14.14
2023-01-19T22:27:42.062Z,15.11
2023-01-19T22:30:08.384Z,15.28
2023-01-19T22:32:34.687Z,15.18
2023-01-19T22:35:00.960Z,15.75
2023-01-19T22:37:27.243Z,15.87
2023-01-19T22:39:53.587Z,14.93
2023-01-19T22:42:19.880Z,15.56
2023-01-19T22:44:46.139Z,14.69
2023-01-19T22:47:12.427Z,14.39
2023-01-19T22:49:38.755Z,14.20
2023-01-19T22:52:05.061Z,15.63
2023-01-19T22:54:31.372Z,15.56
2023-01-19T22:56:57.695Z,15.86
2023-01-19T22:59:23.970Z,14.57
2023-01-19T23:01:50.363Z,15.00
2023-01-19T23:04:16.697Z,15.12
2023-01-19T23:06:42.992Z,14.73
2023-01-19T23:09:09.344Z,14.92
2023-01-19T23:11:36.184Z,15.73
2023-01-19T23:14:02.491Z,15.38
2023-01-19T23:16:28.760Z,14.67
2023-01-19T23:18:55.041Z,14.17
2023-01-19T23:21:21.332Z,14.61
2023-01-19T23:23:47.595Z,15.01
2023-01-19T23:26:13.940Z,14.75
2023-01-19T23:28:40.311Z,14.74
2023-01-19T23:31:06.632Z,15.15
2023-01-19T23:33:32.941Z,15.55
2023-01-19T23:35:59.198Z,15.13
2023-01-19T23:38:25.468Z,14.82
2023-01-19T23:40:51.742Z,14.44
2023-01-19T23:43:18.010Z,14.95
2023-01-19T23:45:44.365Z,14.54
2023-01-19T23:48:10.638Z,13.80
2023-01-19T23:50:36.903Z,13.72
2023-01-19T23:53:03.269Z,13.03
2023-01-19T23:55:29.568Z,12.85
2023-01-19T23:57:55.841Z,13.10
